Wetterdaten: aktuell Dienstag, 27.02.2024 08:55
Datum Zeit Temp. I. Temp. A. Solar Aussen Res Temp4 neu Temp. Wind Feuchte A. Luftdruck Regen Wind Richtung Richtung Windben
27.02.2024 08:55 23,4 C 7,2 C 29,8 C 6,6 C 6,5 C 14,0 C 76 % 1009,7 hPa 0,0 mm 0,0 km/h W-SW 247 0,0 km/h
27.02.2024 07:55 23,4 C 3,5 C 25,6 C 2,9 C 3,1 C 5,6 C 81 % 1009,4 hPa 0,0 mm 0,0 km/h W-SW 247 0,0 km/h
27.02.2024 06:55 23,0 C 2,5 C 25,5 C 1,9 C 2,2 C 2,0 C 82 % 1008,6 hPa 0,0 mm 0,0 km/h W-SW 247 0,0 km/h
27.02.2024 05:55 22,4 C 2,4 C 25,3 C 1,9 C 2,2 C 1,8 C 81 % 1007,9 hPa 0,0 mm 0,0 km/h W-SW 247 0,0 km/h
27.02.2024 04:55 21,4 C 2,9 C 25,0 C 2,3 C 2,5 C 2,5 C 81 % 1007,3 hPa 0,0 mm 0,0 km/h W-SW 247 0,0 km/h
27.02.2024 03:55 21,6 C 3,3 C 25,2 C 2,7 C 3,0 C 2,6 C 79 % 1006,9 hPa 0,0 mm 0,0 km/h NO 45 0,0 km/h
27.02.2024 02:55 21,7 C 3,8 C 25,3 C 3,2 C 3,7 C 3,1 C 79 % 1006,8 hPa 0,0 mm 0,0 km/h NO 45 0,0 km/h
27.02.2024 01:55 21,9 C 4,3 C 25,4 C 3,7 C 4,3 C 3,8 C 77 % 1007,1 hPa 0,0 mm 0,0 km/h W-SW 247 0,0 km/h
27.02.2024 00:55 22,2 C 4,7 C 25,6 C 4,2 C 4,8 C 4,5 C 77 % 1006,8 hPa 0,0 mm 3,5 km/h W-SW 247 6,8 km/h
26.02.2024 23:55 22,5 C 5,5 C 25,8 C 5,0 C 5,1 C 4,7 C 72 % 1006,9 hPa 0,0 mm 0,0 km/h NO 45 0,0 km/h
26.02.2024 22:55 23,1 C 6,7 C 26,1 C 6,3 C 6,1 C 6,1 C 70 % 1007,4 hPa 0,0 mm 0,8 km/h NO 45 4,6 km/h
26.02.2024 21:55 23,2 C 7,9 C 26,4 C 7,4 C 7,4 C 7,4 C 66 % 1006,8 hPa 0,0 mm 4,8 km/h W-SW 247 8,1 km/h
26.02.2024 20:55 23,2 C 8,7 C 27,1 C 8,1 C 8,3 C 8,3 C 64 % 1006,2 hPa 0,0 mm 1,2 km/h W-SW 247 2,3 km/h
26.02.2024 19:55 23,0 C 9,2 C 27,3 C 8,7 C 8,9 C 9,0 C 61 % 1005,7 hPa 0,0 mm 4,2 km/h W-SW 247 7,0 km/h
26.02.2024 18:55 22,4 C 9,6 C 28,4 C 9,2 C 9,3 C 9,3 C 60 % 1004,7 hPa 0,0 mm 4,1 km/h W-SW 247 4,2 km/h
26.02.2024 17:55 22,0 C 10,3 C 29,0 C 9,9 C 9,9 C 10,0 C 56 % 1003,9 hPa 0,0 mm 3,3 km/h SW 225 1,9 km/h
26.02.2024 16:55 21,8 C 11,2 C 31,5 C 10,7 C 10,7 C 11,0 C 53 % 1003,4 hPa 0,0 mm 4,4 km/h W-SW 247 2,3 km/h
26.02.2024 15:55 21,8 C 12,4 C 35,8 C 11,9 C 11,7 C 12,8 C 49 % 1003,1 hPa 0,0 mm 6,0 km/h W 270 7,1 km/h
26.02.2024 14:55 22,0 C 13,8 C 39,2 C 13,3 C 12,6 C 17,8 C 49 % 1002,6 hPa 0,0 mm 8,9 km/h W-SW 247 9,3 km/h
26.02.2024 13:55 22,1 C 12,1 C 37,5 C 11,7 C 11,7 C 13,2 C 54 % 1002,8 hPa 0,0 mm 7,5 km/h NO 45 10,6 km/h
26.02.2024 12:55 22,1 C 11,9 C 37,0 C 11,4 C 11,5 C 14,1 C 58 % 1002,8 hPa 0,0 mm 6,2 km/h SW 225 7,5 km/h
26.02.2024 11:55 22,0 C 11,1 C 36,7 C 10,7 C 10,8 C 15,8 C 63 % 1003,0 hPa 0,0 mm 7,0 km/h SW 225 5,4 km/h
26.02.2024 10:56 22,1 C 9,2 C 34,7 C 8,8 C 8,9 C 12,8 C 69 % 1003,1 hPa 0,0 mm 7,5 km/h W-SW 247 6,4 km/h
26.02.2024 10:00 22,4 C 7,7 C 32,2 C 7,3 C 7,7 C 13,0 C 79 % 1003,0 hPa 0,0 mm 5,4 km/h W-SW 247 4,6 km/h
26.02.2024 09:00 23,0 C 4,5 C 27,1 C 3,9 C 3,4 C 12,3 C 90 % 1003,2 hPa 0,0 mm 0,4 km/h W-SW 247 5,2 km/h
_ Min-Zeit 04:35 06:25 08:40 06:25 06:15 06:25 15:20 14:35 - 22:45 - - 09:10
Minimum _ 21,4 C 2,3 C 21,1 C 1,7 C 2,1 C 1,7 C 46 % 1002,5 hPa - 0,0 km/h - - 0,0 km/h
_ Max-Zeit 08:00 15:15 14:40 15:15 15:15 14:35 09:00 08:55 09:00 13:25 - - 13:25
Maximum _ 23,5 C 14,0 C 39,7 C 13,4 C 12,9 C 18,8 C 90 % 1009,7 hPa 0,0 mm 10,6 km/h
SW
- - 21,2 km/h
SW
Durchschnitt _ 22,4 C 7,3 C 29,3 C 6,8 C 6,9 C 8,8 C 70 % 1005,4 hPa #0,0 mm 3,0 km/h W-SW - 4,2 km/h